sensor_id;sensor_type;location;lat;lon;timestamp;pressure;altitude;pressure_sealevel;temperature;humidity
19594;BME280;9944;48.240;16.478;2024-01-30T00:03:07;101697.75;;;1.44;73.33
19594;BME280;9944;48.240;16.478;2024-01-30T00:07:30;101690.66;;;1.41;73.37
19594;BME280;9944;48.240;16.478;2024-01-30T00:11:56;101686.16;;;1.38;73.49
19594;BME280;9944;48.240;16.478;2024-01-30T00:16:20;101687.06;;;1.39;73.50
19594;BME280;9944;48.240;16.478;2024-01-30T00:20:45;101679.84;;;1.35;73.43
19594;BME280;9944;48.240;16.478;2024-01-30T00:25:08;101680.56;;;1.32;73.42
19594;BME280;9944;48.240;16.478;2024-01-30T00:29:33;101677.88;;;1.31;73.56
19594;BME280;9944;48.240;16.478;2024-01-30T00:33:57;101683.97;;;1.31;73.79
19594;BME280;9944;48.240;16.478;2024-01-30T00:38:21;101685.56;;;1.29;73.80
19594;BME280;9944;48.240;16.478;2024-01-30T00:42:44;101686.28;;;1.27;73.61
19594;BME280;9944;48.240;16.478;2024-01-30T00:47:09;101693.09;;;1.25;73.83
19594;BME280;9944;48.240;16.478;2024-01-30T00:51:33;101699.97;;;1.24;73.86
19594;BME280;9944;48.240;16.478;2024-01-30T00:55:57;101691.97;;;1.21;73.99
19594;BME280;9944;48.240;16.478;2024-01-30T01:00:20;101683.16;;;1.19;74.03
19594;BME280;9944;48.240;16.478;2024-01-30T01:04:47;101684.00;;;1.18;74.11
19594;BME280;9944;48.240;16.478;2024-01-30T01:09:10;101677.75;;;1.16;74.03
19594;BME280;9944;48.240;16.478;2024-01-30T01:13:34;101676.66;;;1.12;74.26
19594;BME280;9944;48.240;16.478;2024-01-30T01:17:58;101661.78;;;1.10;74.28
19594;BME280;9944;48.240;16.478;2024-01-30T01:22:23;101662.56;;;1.09;74.31
19594;BME280;9944;48.240;16.478;2024-01-30T01:26:47;101652.78;;;1.05;74.51
19594;BME280;9944;48.240;16.478;2024-01-30T01:32:08;101665.00;;;1.06;74.59
19594;BME280;9944;48.240;16.478;2024-01-30T01:36:32;101656.16;;;1.04;74.65
19594;BME280;9944;48.240;16.478;2024-01-30T01:40:57;101650.78;;;1.00;74.95
19594;BME280;9944;48.240;16.478;2024-01-30T01:45:21;101653.97;;;0.96;74.81
19594;BME280;9944;48.240;16.478;2024-01-30T01:49:45;101651.25;;;0.95;75.03
19594;BME280;9944;48.240;16.478;2024-01-30T01:54:09;101648.56;;;0.93;74.99
19594;BME280;9944;48.240;16.478;2024-01-30T01:58:34;101641.38;;;0.89;75.32
19594;BME280;9944;48.240;16.478;2024-01-30T02:02:59;101644.88;;;0.90;75.19
19594;BME280;9944;48.240;16.478;2024-01-30T02:07:24;101644.75;;;0.88;75.28
19594;BME280;9944;48.240;16.478;2024-01-30T02:11:47;101647.19;;;0.85;75.18
19594;BME280;9944;48.240;16.478;2024-01-30T02:16:13;101647.06;;;0.83;75.32
19594;BME280;9944;48.240;16.478;2024-01-30T02:20:37;101637.38;;;0.81;75.30
19594;BME280;9944;48.240;16.478;2024-01-30T02:25:04;101636.47;;;0.80;75.16
19594;BME280;9944;48.240;16.478;2024-01-30T02:29:27;101633.56;;;0.76;75.10
19594;BME280;9944;48.240;16.478;2024-01-30T02:33:51;101633.28;;;0.71;75.12
19594;BME280;9944;48.240;16.478;2024-01-30T02:38:15;101636.56;;;0.69;75.21
19594;BME280;9944;48.240;16.478;2024-01-30T02:42:40;101642.56;;;0.68;75.25
19594;BME280;9944;48.240;16.478;2024-01-30T02:47:04;101638.16;;;0.67;75.19
19594;BME280;9944;48.240;16.478;2024-01-30T02:51:28;101635.34;;;0.63;75.35
19594;BME280;9944;48.240;16.478;2024-01-30T02:55:52;101646.47;;;0.61;75.39
19594;BME280;9944;48.240;16.478;2024-01-30T03:00:19;101642.06;;;0.60;75.41
19594;BME280;9944;48.240;16.478;2024-01-30T03:04:43;101642.16;;;0.61;75.52
19594;BME280;9944;48.240;16.478;2024-01-30T03:09:07;101636.75;;;0.58;75.63
19594;BME280;9944;48.240;16.478;2024-01-30T03:13:32;101630.34;;;0.53;75.61
19594;BME280;9944;48.240;16.478;2024-01-30T03:17:57;101626.75;;;0.51;75.46
19594;BME280;9944;48.240;16.478;2024-01-30T03:22:21;101631.66;;;0.47;75.50
19594;BME280;9944;48.240;16.478;2024-01-30T03:26:45;101629.75;;;0.44;75.52
19594;BME280;9944;48.240;16.478;2024-01-30T03:31:08;101620.94;;;0.42;75.66
19594;BME280;9944;48.240;16.478;2024-01-30T03:35:33;101619.25;;;0.42;75.68
19594;BME280;9944;48.240;16.478;2024-01-30T03:39:58;101624.16;;;0.38;75.80
19594;BME280;9944;48.240;16.478;2024-01-30T03:44:22;101613.75;;;0.38;75.80
19594;BME280;9944;48.240;16.478;2024-01-30T03:48:45;101620.53;;;0.36;75.81
19594;BME280;9944;48.240;16.478;2024-01-30T03:53:11;101616.03;;;0.33;75.97
19594;BME280;9944;48.240;16.478;2024-01-30T03:57:34;101621.25;;;0.33;76.02
19594;BME280;9944;48.240;16.478;2024-01-30T04:01:58;101617.66;;;0.31;75.94
19594;BME280;9944;48.240;16.478;2024-01-30T04:06:22;101621.81;;;0.29;75.95
19594;BME280;9944;48.240;16.478;2024-01-30T04:10:47;101622.41;;;0.25;76.07
19594;BME280;9944;48.240;16.478;2024-01-30T04:15:11;101627.59;;;0.25;76.11
19594;BME280;9944;48.240;16.478;2024-01-30T04:19:37;101624.13;;;0.24;76.24
19594;BME280;9944;48.240;16.478;2024-01-30T04:24:01;101615.44;;;0.24;76.16
19594;BME280;9944;48.240;16.478;2024-01-30T04:28:26;101623.13;;;0.22;76.12
19594;BME280;9944;48.240;16.478;2024-01-30T04:32:50;101617.94;;;0.22;76.34
19594;BME280;9944;48.240;16.478;2024-01-30T04:37:14;101618.59;;;0.20;76.41
19594;BME280;9944;48.240;16.478;2024-01-30T04:41:38;101626.28;;;0.18;76.65
19594;BME280;9944;48.240;16.478;2024-01-30T04:46:04;101624.50;;;0.17;76.51
19594;BME280;9944;48.240;16.478;2024-01-30T04:50:28;101619.00;;;0.13;76.43
19594;BME280;9944;48.240;16.478;2024-01-30T04:54:52;101623.06;;;0.09;76.61
19594;BME280;9944;48.240;16.478;2024-01-30T04:59:16;101627.28;;;0.07;76.74
19594;BME280;9944;48.240;16.478;2024-01-30T05:03:41;101622.84;;;0.06;76.71
19594;BME280;9944;48.240;16.478;2024-01-30T05:08:05;101620.03;;;0.03;76.83
19594;BME280;9944;48.240;16.478;2024-01-30T05:12:29;101623.47;;;0.02;76.76
19594;BME280;9944;48.240;16.478;2024-01-30T05:16:53;101620.63;;;-0.01;76.74
19594;BME280;9944;48.240;16.478;2024-01-30T05:21:18;101623.72;;;-0.07;77.02
19594;BME280;9944;48.240;16.478;2024-01-30T05:25:42;101629.41;;;-0.13;77.10
19594;BME280;9944;48.240;16.478;2024-01-30T05:30:07;101633.66;;;-0.13;77.08
19594;BME280;9944;48.240;16.478;2024-01-30T05:34:31;101632.78;;;-0.14;77.33
19594;BME280;9944;48.240;16.478;2024-01-30T05:38:57;101630.06;;;-0.15;77.13
19594;BME280;9944;48.240;16.478;2024-01-30T05:43:21;101636.16;;;-0.15;77.51
19594;BME280;9944;48.240;16.478;2024-01-30T05:47:45;101636.16;;;-0.15;77.32
19594;BME280;9944;48.240;16.478;2024-01-30T05:52:08;101627.16;;;-0.20;77.37
19594;BME280;9944;48.240;16.478;2024-01-30T05:56:34;101637.53;;;-0.20;77.14
19594;BME280;9944;48.240;16.478;2024-01-30T06:00:58;101631.22;;;-0.23;77.27
19594;BME280;9944;48.240;16.478;2024-01-30T06:05:22;101638.72;;;-0.28;77.39
19594;BME280;9944;48.240;16.478;2024-01-30T06:09:46;101639.50;;;-0.29;77.48
19594;BME280;9944;48.240;16.478;2024-01-30T06:14:11;101645.47;;;-0.30;77.55
19594;BME280;9944;48.240;16.478;2024-01-30T06:18:35;101645.47;;;-0.30;77.45
19594;BME280;9944;48.240;16.478;2024-01-30T06:22:59;101652.25;;;-0.32;77.64
19594;BME280;9944;48.240;16.478;2024-01-30T06:27:23;101650.47;;;-0.33;77.74
19594;BME280;9944;48.240;16.478;2024-01-30T06:31:48;101652.94;;;-0.35;77.79
19594;BME280;9944;48.240;16.478;2024-01-30T06:36:11;101652.84;;;-0.36;77.81
19594;BME280;9944;48.240;16.478;2024-01-30T06:40:35;101657.44;;;-0.32;77.77
19594;BME280;9944;48.240;16.478;2024-01-30T06:44:59;101658.13;;;-0.35;78.09
19594;BME280;9944;48.240;16.478;2024-01-30T06:49:25;101655.44;;;-0.36;78.04
19594;BME280;9944;48.240;16.478;2024-01-30T06:53:49;101659.81;;;-0.35;78.01
19594;BME280;9944;48.240;16.478;2024-01-30T06:58:13;101662.41;;;-0.35;78.05
19594;BME280;9944;48.240;16.478;2024-01-30T07:02:37;101662.41;;;-0.35;77.93
19594;BME280;9944;48.240;16.478;2024-01-30T07:07:02;101667.81;;;-0.32;77.85
19594;BME280;9944;48.240;16.478;2024-01-30T07:11:27;101675.81;;;-0.29;77.82
19594;BME280;9944;48.240;16.478;2024-01-30T07:15:51;101683.59;;;-0.29;77.95
19594;BME280;9944;48.240;16.478;2024-01-30T07:20:15;101685.41;;;-0.28;78.03
19594;BME280;9944;48.240;16.478;2024-01-30T07:24:43;101691.72;;;-0.24;78.19
19594;BME280;9944;48.240;16.478;2024-01-30T07:29:10;101689.31;;;-0.21;77.91
19594;BME280;9944;48.240;16.478;2024-01-30T07:33:34;101695.66;;;-0.18;78.01
19594;BME280;9944;48.240;16.478;2024-01-30T07:37:58;101697.56;;;-0.15;78.08
19594;BME280;9944;48.240;16.478;2024-01-30T07:42:23;101690.09;;;-0.10;78.03
19594;BME280;9944;48.240;16.478;2024-01-30T07:46:48;101686.91;;;-0.06;77.93
19594;BME280;9944;48.240;16.478;2024-01-30T07:51:12;101687.44;;;0.01;77.46
19594;BME280;9944;48.240;16.478;2024-01-30T07:55:57;101682.69;;;0.07;77.41
19594;BME280;9944;48.240;16.478;2024-01-30T08:00:22;101683.78;;;0.11;77.40
19594;BME280;9944;48.240;16.478;2024-01-30T08:04:46;101683.41;;;0.18;77.37
19594;BME280;9944;48.240;16.478;2024-01-30T08:09:12;101690.75;;;0.24;77.19
19594;BME280;9944;48.240;16.478;2024-01-30T08:13:35;101695.56;;;0.31;77.17
19594;BME280;9944;48.240;16.478;2024-01-30T08:18:01;101702.25;;;0.41;77.14
19594;BME280;9944;48.240;16.478;2024-01-30T08:22:24;101690.72;;;0.49;77.09
19594;BME280;9944;48.240;16.478;2024-01-30T08:26:48;101700.16;;;0.60;76.86
19594;BME280;9944;48.240;16.478;2024-01-30T08:31:12;101699.84;;;0.69;76.79
19594;BME280;9944;48.240;16.478;2024-01-30T08:35:37;101700.56;;;0.80;76.58
19594;BME280;9944;48.240;16.478;2024-01-30T08:40:01;101705.47;;;0.89;76.21
19594;BME280;9944;48.240;16.478;2024-01-30T08:44:27;101701.75;;;0.98;76.07
19594;BME280;9944;48.240;16.478;2024-01-30T08:48:51;101707.38;;;1.05;75.88
19594;BME280;9944;48.240;16.478;2024-01-30T08:53:17;101695.69;;;1.11;75.45
19594;BME280;9944;48.240;16.478;2024-01-30T08:57:40;101696.16;;;1.19;75.35
19594;BME280;9944;48.240;16.478;2024-01-30T09:02:04;101706.38;;;1.29;75.28
19594;BME280;9944;48.240;16.478;2024-01-30T09:06:34;101688.75;;;1.38;74.87
19594;BME280;9944;48.240;16.478;2024-01-30T09:10:59;101693.56;;;1.46;74.68
19594;BME280;9944;48.240;16.478;2024-01-30T09:15:23;101699.34;;;1.55;74.70
19594;BME280;9944;48.240;16.478;2024-01-30T09:19:48;101697.41;;;1.66;74.55
19594;BME280;9944;48.240;16.478;2024-01-30T09:24:12;101700.44;;;1.72;74.05
19594;BME280;9944;48.240;16.478;2024-01-30T09:28:37;101699.09;;;1.79;73.82
19594;BME280;9944;48.240;16.478;2024-01-30T09:33:01;101710.72;;;1.84;73.30
19594;BME280;9944;48.240;16.478;2024-01-30T09:37:25;101710.28;;;1.91;73.34
19594;BME280;9944;48.240;16.478;2024-01-30T09:41:55;101705.44;;;1.97;72.95
19594;BME280;9944;48.240;16.478;2024-01-30T09:46:26;101706.19;;;2.09;72.72
19594;BME280;9944;48.240;16.478;2024-01-30T09:50:52;101707.38;;;2.14;72.52
19594;BME280;9944;48.240;16.478;2024-01-30T09:55:16;101702.47;;;2.19;71.82
19594;BME280;9944;48.240;16.478;2024-01-30T09:59:41;101700.06;;;2.22;71.66
19594;BME280;9944;48.240;16.478;2024-01-30T10:04:07;101695.19;;;2.28;71.41
19594;BME280;9944;48.240;16.478;2024-01-30T10:08:31;101694.50;;;2.31;71.27
19594;BME280;9944;48.240;16.478;2024-01-30T10:12:55;101692.09;;;2.34;71.23
19594;BME280;9944;48.240;16.478;2024-01-30T10:17:18;101683.19;;;2.45;71.14
19594;BME280;9944;48.240;16.478;2024-01-30T10:21:56;101677.53;;;2.52;70.85
19594;BME280;9944;48.240;16.478;2024-01-30T10:26:20;101677.06;;;2.60;70.67
19594;BME280;9944;48.240;16.478;2024-01-30T10:30:44;101680.06;;;2.66;70.52
19594;BME280;9944;48.240;16.478;2024-01-30T10:35:08;101669.25;;;2.75;70.64
19594;BME280;9944;48.240;16.478;2024-01-30T10:39:38;101671.59;;;2.85;70.76
19594;BME280;9944;48.240;16.478;2024-01-30T10:44:05;101656.28;;;2.91;70.32
19594;BME280;9944;48.240;16.478;2024-01-30T10:48:32;101656.66;;;2.97;70.00
19594;BME280;9944;48.240;16.478;2024-01-30T10:53:04;101653.56;;;3.04;69.77
19594;BME280;9944;48.240;16.478;2024-01-30T10:57:30;101646.72;;;3.06;69.61
19594;BME280;9944;48.240;16.478;2024-01-30T11:01:54;101643.91;;;3.18;69.73
19594;BME280;9944;48.240;16.478;2024-01-30T11:06:18;101640.34;;;3.33;69.24
19594;BME280;9944;48.240;16.478;2024-01-30T11:10:46;101634.75;;;3.41;69.30
19594;BME280;9944;48.240;16.478;2024-01-30T11:15:12;101625.53;;;3.48;69.18
19594;BME280;9944;48.240;16.478;2024-01-30T11:19:36;101629.66;;;3.59;68.45
19594;BME280;9944;48.240;16.478;2024-01-30T11:24:02;101625.56;;;3.64;68.20
19594;BME280;9944;48.240;16.478;2024-01-30T11:28:32;101620.59;;;3.69;67.31
19594;BME280;9944;48.240;16.478;2024-01-30T11:33:02;101618.22;;;3.74;67.82
19594;BME280;9944;48.240;16.478;2024-01-30T11:37:31;101605.25;;;3.75;67.14
19594;BME280;9944;48.240;16.478;2024-01-30T11:41:55;101606.47;;;3.82;67.34
19594;BME280;9944;48.240;16.478;2024-01-30T11:46:19;101599.13;;;3.91;66.94
19594;BME280;9944;48.240;16.478;2024-01-30T11:50:45;101607.25;;;3.96;66.99
19594;BME280;9944;48.240;16.478;2024-01-30T11:55:09;101605.84;;;4.02;67.02
19594;BME280;9944;48.240;16.478;2024-01-30T11:59:34;101604.22;;;4.05;66.71
19594;BME280;9944;48.240;16.478;2024-01-30T12:03:58;101602.22;;;4.17;66.78
19594;BME280;9944;48.240;16.478;2024-01-30T12:08:23;101597.28;;;4.23;65.91
19594;BME280;9944;48.240;16.478;2024-01-30T12:12:49;101594.84;;;4.26;66.14
19594;BME280;9944;48.240;16.478;2024-01-30T12:17:23;101589.94;;;4.32;66.04
19594;BME280;9944;48.240;16.478;2024-01-30T12:21:47;101579.78;;;4.38;65.81
19594;BME280;9944;48.240;16.478;2024-01-30T12:26:13;101578.78;;;4.53;65.53
19594;BME280;9944;48.240;16.478;2024-01-30T12:30:37;101570.84;;;4.69;65.68
19594;BME280;9944;48.240;16.478;2024-01-30T12:35:01;101575.47;;;4.75;65.04
19594;BME280;9944;48.240;16.478;2024-01-30T12:39:25;101564.56;;;4.84;65.29
19594;BME280;9944;48.240;16.478;2024-01-30T12:43:50;101571.88;;;4.91;64.74
19594;BME280;9944;48.240;16.478;2024-01-30T12:48:15;101564.41;;;4.98;64.58
19594;BME280;9944;48.240;16.478;2024-01-30T12:52:39;101555.28;;;5.08;64.42
19594;BME280;9944;48.240;16.478;2024-01-30T12:57:03;101560.16;;;5.20;64.04
19594;BME280;9944;48.240;16.478;2024-01-30T13:01:28;101546.59;;;5.29;63.03
19594;BME280;9944;48.240;16.478;2024-01-30T13:05:52;101543.09;;;5.28;62.85
19594;BME280;9944;48.240;16.478;2024-01-30T13:10:15;101540.47;;;5.28;62.51
19594;BME280;9944;48.240;16.478;2024-01-30T13:14:39;101535.47;;;5.33;62.56
19594;BME280;9944;48.240;16.478;2024-01-30T13:19:04;101527.06;;;5.40;61.98
19594;BME280;9944;48.240;16.478;2024-01-30T13:23:28;101525.41;;;5.42;61.73
19594;BME280;9944;48.240;16.478;2024-01-30T13:27:53;101534.38;;;5.47;61.79
19594;BME280;9944;48.240;16.478;2024-01-30T13:32:16;101540.41;;;5.46;61.67
19594;BME280;9944;48.240;16.478;2024-01-30T13:36:41;101527.31;;;5.46;61.32
19594;BME280;9944;48.240;16.478;2024-01-30T13:41:07;101540.56;;;5.49;61.55
19594;BME280;9944;48.240;16.478;2024-01-30T13:45:31;101532.69;;;5.49;60.52
19594;BME280;9944;48.240;16.478;2024-01-30T13:49:54;101535.19;;;5.46;60.38
19594;BME280;9944;48.240;16.478;2024-01-30T13:54:20;101538.56;;;5.44;60.88
19594;BME280;9944;48.240;16.478;2024-01-30T13:58:44;101537.53;;;5.40;60.70
19594;BME280;9944;48.240;16.478;2024-01-30T14:03:08;101537.53;;;5.40;60.85
19594;BME280;9944;48.240;16.478;2024-01-30T14:07:32;101535.72;;;5.39;60.69
19594;BME280;9944;48.240;16.478;2024-01-30T14:11:57;101536.50;;;5.37;60.98
19594;BME280;9944;48.240;16.478;2024-01-30T14:16:21;101540.00;;;5.37;61.09
19594;BME280;9944;48.240;16.478;2024-01-30T14:20:46;101532.94;;;5.34;60.54
19594;BME280;9944;48.240;16.478;2024-01-30T14:25:10;101535.47;;;5.33;60.67
19594;BME280;9944;48.240;16.478;2024-01-30T14:29:36;101535.16;;;5.27;60.88
19594;BME280;9944;48.240;16.478;2024-01-30T14:34:01;101542.88;;;5.24;60.81
19594;BME280;9944;48.240;16.478;2024-01-30T14:38:25;101536.69;;;5.22;60.96
19594;BME280;9944;48.240;16.478;2024-01-30T14:42:50;101523.53;;;5.20;61.32
19594;BME280;9944;48.240;16.478;2024-01-30T14:47:15;101534.75;;;5.18;61.13
19594;BME280;9944;48.240;16.478;2024-01-30T14:51:39;101524.97;;;5.13;61.46
19594;BME280;9944;48.240;16.478;2024-01-30T14:56:06;101532.69;;;5.10;61.36
19594;BME280;9944;48.240;16.478;2024-01-30T15:00:31;101540.25;;;5.04;61.48
19594;BME280;9944;48.240;16.478;2024-01-30T15:04:56;101533.16;;;5.02;61.45
19594;BME280;9944;48.240;16.478;2024-01-30T15:09:20;101532.84;;;4.95;61.47
19594;BME280;9944;48.240;16.478;2024-01-30T15:13:46;101526.66;;;4.93;61.75
19594;BME280;9944;48.240;16.478;2024-01-30T15:18:10;101534.28;;;4.89;61.80
19594;BME280;9944;48.240;16.478;2024-01-30T15:22:35;101527.84;;;4.82;62.08
19594;BME280;9944;48.240;16.478;2024-01-30T15:26:59;101524.19;;;4.78;62.42
19594;BME280;9944;48.240;16.478;2024-01-30T15:31:25;101537.06;;;4.74;62.47
19594;BME280;9944;48.240;16.478;2024-01-30T15:35:48;101537.66;;;4.68;62.58
19594;BME280;9944;48.240;16.478;2024-01-30T15:40:13;101540.88;;;4.63;62.70
19594;BME280;9944;48.240;16.478;2024-01-30T15:44:38;101541.41;;;4.55;62.96
19594;BME280;9944;48.240;16.478;2024-01-30T15:49:01;101540.19;;;4.49;63.13
19594;BME280;9944;48.240;16.478;2024-01-30T15:53:26;101542.63;;;4.44;63.34
19594;BME280;9944;48.240;16.478;2024-01-30T15:57:52;101537.81;;;4.35;63.40
19594;BME280;9944;48.240;16.478;2024-01-30T16:02:15;101533.75;;;4.24;63.39
19594;BME280;9944;48.240;16.478;2024-01-30T16:06:41;101543.91;;;4.18;63.64
19594;BME280;9944;48.240;16.478;2024-01-30T16:11:05;101535.75;;;4.12;63.57
19594;BME280;9944;48.240;16.478;2024-01-30T16:15:30;101543.34;;;4.07;63.93
19594;BME280;9944;48.240;16.478;2024-01-30T16:19:53;101542.13;;;4.00;63.96
19594;BME280;9944;48.240;16.478;2024-01-30T16:24:17;101549.66;;;3.94;63.97
19594;BME280;9944;48.240;16.478;2024-01-30T16:28:44;101539.78;;;3.89;64.08
19594;BME280;9944;48.240;16.478;2024-01-30T16:33:10;101552.59;;;3.84;64.24
19594;BME280;9944;48.240;16.478;2024-01-30T16:37:34;101547.03;;;3.78;64.36
19594;BME280;9944;48.240;16.478;2024-01-30T16:41:58;101547.53;;;3.71;64.39
19594;BME280;9944;48.240;16.478;2024-01-30T16:46:22;101540.28;;;3.65;64.36
19594;BME280;9944;48.240;16.478;2024-01-30T16:50:48;101540.88;;;3.59;64.41
19594;BME280;9944;48.240;16.478;2024-01-30T16:55:12;101547.47;;;3.53;nan
19594;BME280;9944;48.240;16.478;2024-01-30T16:59:36;101547.31;;;3.50;65.06
19594;BME280;9944;48.240;16.478;2024-01-30T17:04:00;101544.44;;;3.45;65.21
19594;BME280;9944;48.240;16.478;2024-01-30T17:08:25;101542.50;;;3.41;65.19
19594;BME280;9944;48.240;16.478;2024-01-30T17:12:49;101548.38;;;3.37;65.40
19594;BME280;9944;48.240;16.478;2024-01-30T17:17:12;101549.94;;;3.33;65.40
19594;BME280;9944;48.240;16.478;2024-01-30T17:21:37;101550.47;;;3.27;65.56
19594;BME280;9944;48.240;16.478;2024-01-30T17:26:02;101547.72;;;3.24;65.69
19594;BME280;9944;48.240;16.478;2024-01-30T17:30:26;101543.22;;;3.22;65.93
19594;BME280;9944;48.240;16.478;2024-01-30T17:34:50;101543.97;;;3.19;65.89
19594;BME280;9944;48.240;16.478;2024-01-30T17:39:14;101538.75;;;3.19;66.05
19594;BME280;9944;48.240;16.478;2024-01-30T17:43:39;101542.63;;;3.11;66.03
19594;BME280;9944;48.240;16.478;2024-01-30T17:48:03;101539.69;;;3.05;66.28
19594;BME280;9944;48.240;16.478;2024-01-30T17:52:27;101542.06;;;3.00;66.44
19594;BME280;9944;48.240;16.478;2024-01-30T17:56:51;101544.41;;;2.96;66.60
19594;BME280;9944;48.240;16.478;2024-01-30T18:01:17;101538.13;;;2.92;66.75
19594;BME280;9944;48.240;16.478;2024-01-30T18:05:41;101544.03;;;2.89;66.73
19594;BME280;9944;48.240;16.478;2024-01-30T18:10:06;101538.78;;;2.88;66.98
19594;BME280;9944;48.240;16.478;2024-01-30T18:14:30;101534.25;;;2.85;67.07
19594;BME280;9944;48.240;16.478;2024-01-30T18:18:55;101539.22;;;2.81;66.89
19594;BME280;9944;48.240;16.478;2024-01-30T18:23:19;101539.78;;;2.75;66.99
19594;BME280;9944;48.240;16.478;2024-01-30T18:27:44;101543.91;;;2.71;66.96
19594;BME280;9944;48.240;16.478;2024-01-30T18:32:08;101538.63;;;2.70;67.41
19594;BME280;9944;48.240;16.478;2024-01-30T18:36:33;101548.06;;;2.68;67.42
19594;BME280;9944;48.240;16.478;2024-01-30T18:40:59;101544.22;;;2.61;67.53
19594;BME280;9944;48.240;16.478;2024-01-30T18:45:23;101548.44;;;2.59;67.64
19594;BME280;9944;48.240;16.478;2024-01-30T18:49:47;101543.97;;;2.57;67.77
19594;BME280;9944;48.240;16.478;2024-01-30T18:54:15;101535.13;;;2.55;67.56
19594;BME280;9944;48.240;16.478;2024-01-30T18:58:39;101535.97;;;2.53;67.92
19594;BME280;9944;48.240;16.478;2024-01-30T19:03:03;101536.59;;;2.49;67.85
19594;BME280;9944;48.240;16.478;2024-01-30T19:07:27;101533.81;;;2.46;67.99
19594;BME280;9944;48.240;16.478;2024-01-30T19:11:52;101531.03;;;2.43;67.93
19594;BME280;9944;48.240;16.478;2024-01-30T19:16:16;101536.06;;;2.40;68.07
19594;BME280;9944;48.240;16.478;2024-01-30T19:20:40;101541.09;;;2.37;68.16
19594;BME280;9944;48.240;16.478;2024-01-30T19:25:05;101538.34;;;2.34;68.08
19594;BME280;9944;48.240;16.478;2024-01-30T19:29:30;101544.16;;;2.30;68.23
19594;BME280;9944;48.240;16.478;2024-01-30T19:33:54;101539.50;;;2.24;68.21
19594;BME280;9944;48.240;16.478;2024-01-30T19:38:18;101536.72;;;2.21;68.46
19594;BME280;9944;48.240;16.478;2024-01-30T19:42:41;101539.03;;;2.17;68.20
19594;BME280;9944;48.240;16.478;2024-01-30T19:47:06;101537.06;;;2.12;68.42
19594;BME280;9944;48.240;16.478;2024-01-30T19:51:31;101532.59;;;2.10;68.60
19594;BME280;9944;48.240;16.478;2024-01-30T19:55:55;101539.31;;;2.06;68.55
19594;BME280;9944;48.240;16.478;2024-01-30T20:00:19;101538.22;;;2.03;68.64
19594;BME280;9944;48.240;16.478;2024-01-30T20:04:45;101540.47;;;1.96;68.59
19594;BME280;9944;48.240;16.478;2024-01-30T20:09:08;101539.13;;;1.88;68.68
19594;BME280;9944;48.240;16.478;2024-01-30T20:13:32;101541.63;;;1.87;68.96
19594;BME280;9944;48.240;16.478;2024-01-30T20:17:58;101545.75;;;1.83;69.12
19594;BME280;9944;48.240;16.478;2024-01-30T20:22:23;101541.38;;;1.82;69.11
19594;BME280;9944;48.240;16.478;2024-01-30T20:26:47;101543.88;;;1.81;69.06
19594;BME280;9944;48.240;16.478;2024-01-30T20:31:11;101541.09;;;1.77;69.09
19594;BME280;9944;48.240;16.478;2024-01-30T20:35:35;101543.31;;;1.71;69.15
19594;BME280;9944;48.240;16.478;2024-01-30T20:40:00;101540.53;;;1.68;69.38
19594;BME280;9944;48.240;16.478;2024-01-30T20:44:26;101544.03;;;1.69;69.55
19594;BME280;9944;48.240;16.478;2024-01-30T20:48:49;101548.25;;;1.67;69.47
19594;BME280;9944;48.240;16.478;2024-01-30T20:53:13;101549.94;;;1.66;69.65
19594;BME280;9944;48.240;16.478;2024-01-30T20:57:38;101541.03;;;1.63;69.54
19594;BME280;9944;48.240;16.478;2024-01-30T21:02:02;101549.59;;;1.60;69.44
19594;BME280;9944;48.240;16.478;2024-01-30T21:06:26;101546.59;;;1.54;69.41
19594;BME280;9944;48.240;16.478;2024-01-30T21:10:50;101545.41;;;1.49;69.37
19594;BME280;9944;48.240;16.478;2024-01-30T21:15:15;101554.63;;;1.44;69.28
19594;BME280;9944;48.240;16.478;2024-01-30T21:19:40;101557.56;;;1.35;69.30
19594;BME280;9944;48.240;16.478;2024-01-30T21:24:04;101555.50;;;1.29;69.30
19594;BME280;9944;48.240;16.478;2024-01-30T21:28:28;101555.13;;;1.23;69.47
19594;BME280;9944;48.240;16.478;2024-01-30T21:32:53;101557.44;;;1.18;69.66
19594;BME280;9944;48.240;16.478;2024-01-30T21:37:17;101567.53;;;1.14;70.05
19594;BME280;9944;48.240;16.478;2024-01-30T21:41:41;101562.22;;;1.12;69.97
19594;BME280;9944;48.240;16.478;2024-01-30T21:46:05;101565.34;;;1.07;70.06
19594;BME280;9944;48.240;16.478;2024-01-30T21:50:30;101569.34;;;1.01;69.86
19594;BME280;9944;48.240;16.478;2024-01-30T21:54:54;101573.16;;;0.93;69.83
19594;BME280;9944;48.240;16.478;2024-01-30T21:59:18;101578.00;;;0.87;69.55
19594;BME280;9944;48.240;16.478;2024-01-30T22:03:42;101573.19;;;0.80;69.68
19594;BME280;9944;48.240;16.478;2024-01-30T22:08:09;101572.09;;;0.76;69.67
19594;BME280;9944;48.240;16.478;2024-01-30T22:12:33;101567.38;;;0.71;69.87
19594;BME280;9944;48.240;16.478;2024-01-30T22:16:56;101579.91;;;0.63;70.01
19594;BME280;9944;48.240;16.478;2024-01-30T22:21:20;101585.59;;;0.57;70.24
19594;BME280;9944;48.240;16.478;2024-01-30T22:25:46;101578.09;;;0.49;70.09
19594;BME280;9944;48.240;16.478;2024-01-30T22:30:12;101581.16;;;0.43;70.63
19594;BME280;9944;48.240;16.478;2024-01-30T22:34:35;101588.69;;;0.38;70.88
19594;BME280;9944;48.240;16.478;2024-01-30T22:39:02;101585.75;;;0.34;71.07
19594;BME280;9944;48.240;16.478;2024-01-30T22:43:29;101590.56;;;0.28;71.20
19594;BME280;9944;48.240;16.478;2024-01-30T22:47:55;101599.75;;;0.22;71.21
19594;BME280;9944;48.240;16.478;2024-01-30T22:52:18;101598.53;;;0.17;71.17
19594;BME280;9944;48.240;16.478;2024-01-30T22:56:42;101594.84;;;0.14;71.33
19594;BME280;9944;48.240;16.478;2024-01-30T23:01:07;101601.53;;;0.10;71.33
19594;BME280;9944;48.240;16.478;2024-01-30T23:05:31;101597.09;;;0.09;71.36
19594;BME280;9944;48.240;16.478;2024-01-30T23:09:55;101607.06;;;0.03;71.20
19594;BME280;9944;48.240;16.478;2024-01-30T23:14:19;101609.47;;;-0.00;71.26
19594;BME280;9944;48.240;16.478;2024-01-30T23:18:44;101611.97;;;-0.02;71.27
19594;BME280;9944;48.240;16.478;2024-01-30T23:23:08;101609.16;;;-0.05;71.33